createdAt,value
2022-07-30T00:01:52.550Z,17.23
2022-07-30T00:04:19.255Z,17.20
2022-07-30T00:06:45.872Z,17.19
2022-07-30T00:09:12.510Z,17.19
2022-07-30T00:11:39.076Z,17.21
2022-07-30T00:14:05.919Z,17.24
2022-07-30T00:16:32.637Z,17.26
2022-07-30T00:18:59.771Z,17.31
2022-07-30T00:21:36.403Z,17.32
2022-07-30T00:24:07.104Z,17.32
2022-07-30T00:26:33.678Z,17.32
2022-07-30T00:29:00.619Z,17.31
2022-07-30T00:31:28.964Z,17.29
2022-07-30T00:33:55.589Z,17.27
2022-07-30T00:36:22.591Z,17.27
2022-07-30T00:38:49.413Z,17.29
2022-07-30T00:41:16.378Z,17.31
2022-07-30T00:43:43.761Z,17.32
2022-07-30T00:46:10.487Z,17.30
2022-07-30T00:48:37.318Z,17.28
2022-07-30T00:51:04.076Z,17.26
2022-07-30T00:53:30.829Z,17.25
2022-07-30T00:55:57.675Z,17.22
2022-07-30T00:58:24.420Z,17.20
2022-07-30T01:00:51.427Z,17.14
2022-07-30T01:03:18.091Z,17.16
2022-07-30T01:05:45.352Z,17.14
2022-07-30T01:08:11.986Z,17.08
2022-07-30T01:10:38.641Z,17.01
2022-07-30T01:13:06.578Z,16.96
2022-07-30T01:15:34.495Z,16.92
2022-07-30T01:18:05.328Z,16.91
2022-07-30T01:20:41.070Z,16.89
2022-07-30T01:23:19.597Z,16.81
2022-07-30T01:25:48.802Z,16.82
2022-07-30T01:28:20.885Z,16.82
2022-07-30T01:30:50.098Z,16.78
2022-07-30T01:33:20.206Z,16.76
2022-07-30T01:35:50.529Z,16.70
2022-07-30T01:38:21.825Z,16.65
2022-07-30T01:40:51.208Z,16.60
2022-07-30T01:43:19.991Z,16.55
2022-07-30T01:45:48.513Z,16.48
2022-07-30T01:48:19.937Z,16.41
2022-07-30T01:50:50.415Z,16.34
2022-07-30T01:53:19.159Z,16.32
2022-07-30T01:55:46.740Z,16.31
2022-07-30T01:58:16.583Z,16.31
2022-07-30T02:00:48.057Z,16.29
2022-07-30T02:03:14.833Z,16.29
2022-07-30T02:05:50.417Z,16.30
2022-07-30T02:08:25.976Z,16.32
2022-07-30T02:11:04.608Z,16.32
2022-07-30T02:13:34.159Z,16.28
2022-07-30T02:16:15.146Z,16.27
2022-07-30T02:18:58.565Z,16.23
2022-07-30T02:21:36.700Z,16.22
2022-07-30T02:24:08.305Z,16.22
2022-07-30T02:26:37.074Z,16.19
2022-07-30T02:29:09.567Z,16.17
2022-07-30T02:31:40.516Z,16.16
2022-07-30T02:34:09.087Z,16.14
2022-07-30T02:36:37.753Z,16.13
2022-07-30T02:39:05.679Z,16.12
2022-07-30T02:41:33.341Z,16.12
2022-07-30T02:44:00.835Z,16.12
2022-07-30T02:46:28.921Z,16.12
2022-07-30T02:49:33.405Z,16.09
2022-07-30T02:52:02.809Z,16.08
2022-07-30T02:54:31.489Z,16.10
2022-07-30T02:57:00.895Z,16.11
2022-07-30T02:59:31.523Z,16.14
2022-07-30T03:01:59.500Z,16.08
2022-07-30T03:04:27.857Z,16.10
2022-07-30T03:06:55.683Z,16.04
2022-07-30T03:09:22.784Z,16.09
2022-07-30T03:11:53.735Z,16.05
2022-07-30T03:14:20.752Z,16.11
2022-07-30T03:16:54.202Z,16.14
2022-07-30T03:19:24.925Z,16.17
2022-07-30T03:21:56.205Z,16.20
2022-07-30T03:24:24.630Z,16.20
2022-07-30T03:26:54.177Z,16.20
2022-07-30T03:29:24.198Z,16.20
2022-07-30T03:31:51.724Z,16.21
2022-07-30T03:34:21.201Z,16.25
2022-07-30T03:36:50.155Z,16.22
2022-07-30T03:39:18.401Z,16.25
2022-07-30T03:41:46.796Z,16.28
2022-07-30T03:44:16.005Z,16.27
2022-07-30T03:46:43.565Z,16.23
2022-07-30T03:49:12.033Z,16.23
2022-07-30T03:51:43.792Z,16.20
2022-07-30T03:54:13.814Z,16.19
2022-07-30T03:56:41.090Z,16.18
2022-07-30T03:59:13.075Z,16.16
2022-07-30T04:01:40.898Z,16.16
2022-07-30T04:04:16.202Z,16.14
2022-07-30T04:06:43.186Z,16.10
2022-07-30T04:09:11.791Z,16.11
2022-07-30T04:11:41.379Z,16.12
2022-07-30T04:14:15.928Z,16.13
2022-07-30T04:17:03.789Z,16.13
2022-07-30T04:19:44.663Z,16.16
2022-07-30T04:22:13.478Z,16.16
2022-07-30T04:24:40.742Z,16.12
2022-07-30T04:27:07.896Z,16.16
2022-07-30T04:29:34.792Z,16.17
2022-07-30T04:32:01.747Z,16.19
2022-07-30T04:34:55.802Z,16.19
2022-07-30T04:37:57.780Z,16.17
2022-07-30T04:40:25.130Z,16.19
2022-07-30T04:42:51.847Z,16.18
2022-07-30T04:45:20.283Z,16.19
2022-07-30T04:47:58.127Z,16.19
2022-07-30T04:51:01.768Z,16.17
2022-07-30T04:53:29.644Z,16.16
2022-07-30T04:56:01.326Z,16.15
2022-07-30T04:58:30.112Z,16.13
2022-07-30T05:00:58.121Z,16.16
2022-07-30T05:03:30.165Z,16.17
2022-07-30T05:05:58.599Z,16.22
2022-07-30T05:08:29.821Z,16.28
2022-07-30T05:11:00.198Z,16.28
2022-07-30T05:13:34.524Z,16.33
2022-07-30T05:16:07.140Z,16.39
2022-07-30T05:18:35.268Z,16.47
2022-07-30T05:21:01.982Z,16.53
2022-07-30T05:23:31.837Z,16.59
2022-07-30T05:26:27.528Z,16.64
2022-07-30T05:28:56.947Z,16.68
2022-07-30T05:31:53.433Z,16.75
2022-07-30T05:34:20.952Z,16.72
2022-07-30T05:36:47.645Z,16.76
2022-07-30T05:39:17.012Z,16.77
2022-07-30T05:41:52.749Z,16.85
2022-07-30T05:44:42.675Z,16.87
2022-07-30T05:47:09.280Z,16.88
2022-07-30T05:49:37.964Z,16.91
2022-07-30T05:52:08.602Z,16.98
2022-07-30T05:54:35.442Z,17.03
2022-07-30T05:57:37.357Z,17.11
2022-07-30T06:00:07.582Z,17.15
2022-07-30T06:02:43.559Z,17.21
2022-07-30T06:05:19.790Z,17.26
2022-07-30T06:07:46.861Z,17.29
2022-07-30T06:10:14.547Z,17.36
2022-07-30T06:12:42.418Z,17.43
2022-07-30T06:15:11.112Z,17.52
2022-07-30T06:17:57.205Z,17.60
2022-07-30T06:20:40.231Z,17.67
2022-07-30T06:23:14.657Z,17.76
2022-07-30T06:26:07.494Z,17.83
2022-07-30T06:28:38.206Z,17.90
2022-07-30T06:31:13.717Z,17.94
2022-07-30T06:33:40.421Z,18.02
2022-07-30T06:36:07.238Z,18.07
2022-07-30T06:38:45.841Z,18.17
2022-07-30T06:41:15.861Z,18.22
2022-07-30T06:43:53.111Z,18.29
2022-07-30T06:46:42.547Z,18.37
2022-07-30T06:49:13.005Z,18.45
2022-07-30T06:51:39.677Z,18.51
2022-07-30T06:54:06.580Z,18.54
2022-07-30T06:56:33.183Z,18.60
2022-07-30T06:59:03.973Z,18.65
2022-07-30T07:01:49.719Z,18.72
2022-07-30T07:04:16.750Z,18.76
2022-07-30T07:06:44.118Z,18.78
2022-07-30T07:09:15.110Z,18.84
2022-07-30T07:11:48.306Z,18.88
2022-07-30T07:14:18.072Z,18.84
2022-07-30T07:16:44.896Z,18.90
2022-07-30T07:19:59.918Z,18.89
2022-07-30T07:22:32.194Z,18.95
2022-07-30T07:24:58.822Z,19.02
2022-07-30T07:27:28.804Z,19.08
2022-07-30T07:30:04.392Z,19.17
2022-07-30T07:32:35.245Z,19.25
2022-07-30T07:35:02.793Z,19.31
2022-07-30T07:37:30.289Z,19.26
2022-07-30T07:39:57.204Z,19.40
2022-07-30T07:42:24.086Z,19.45
2022-07-30T07:44:52.486Z,19.48
2022-07-30T07:47:19.231Z,19.49
2022-07-30T07:50:00.596Z,19.54
2022-07-30T07:52:27.213Z,19.59
2022-07-30T07:54:54.664Z,19.68
2022-07-30T07:57:21.991Z,19.81
2022-07-30T07:59:48.887Z,19.87
2022-07-30T08:02:25.851Z,19.90
2022-07-30T08:04:58.561Z,19.97
2022-07-30T08:07:43.149Z,20.08
2022-07-30T08:10:15.048Z,20.13
2022-07-30T08:12:59.949Z,20.21
2022-07-30T08:15:52.468Z,20.25
2022-07-30T08:18:54.097Z,20.38
2022-07-30T08:21:40.911Z,20.48
2022-07-30T08:24:08.854Z,20.60
2022-07-30T08:26:35.512Z,20.65
2022-07-30T08:29:02.380Z,20.70
2022-07-30T08:31:29.001Z,20.74
2022-07-30T08:33:55.629Z,20.89
2022-07-30T08:36:25.987Z,21.00
2022-07-30T08:38:53.668Z,21.03
2022-07-30T08:41:21.193Z,21.09
2022-07-30T08:43:50.933Z,21.16
2022-07-30T08:46:24.455Z,21.28
2022-07-30T08:49:00.561Z,21.40
2022-07-30T08:51:35.570Z,21.44
2022-07-30T08:54:27.103Z,21.50
2022-07-30T08:56:54.503Z,21.61
2022-07-30T08:59:23.693Z,21.66
2022-07-30T09:01:52.041Z,21.69
2022-07-30T09:04:18.955Z,21.72
2022-07-30T09:06:47.036Z,21.68
2022-07-30T09:09:14.949Z,21.75
2022-07-30T09:11:41.589Z,21.80
2022-07-30T09:14:13.811Z,21.80
2022-07-30T09:16:44.341Z,21.91
2022-07-30T09:19:20.503Z,21.98
2022-07-30T09:22:00.744Z,22.20
2022-07-30T09:24:56.157Z,22.38
2022-07-30T09:27:49.794Z,22.50
2022-07-30T09:30:48.657Z,22.47
2022-07-30T09:33:47.944Z,22.67
2022-07-30T09:36:35.601Z,22.85
2022-07-30T09:39:36.802Z,22.92
2022-07-30T09:42:17.741Z,22.84
2022-07-30T09:44:45.469Z,22.85
2022-07-30T09:47:36.957Z,22.99
2022-07-30T09:50:11.398Z,23.06
2022-07-30T09:52:43.849Z,23.18
2022-07-30T09:55:13.321Z,23.29
2022-07-30T09:58:01.579Z,23.33
2022-07-30T10:00:30.637Z,23.35
2022-07-30T10:03:42.568Z,23.48
2022-07-30T10:06:37.995Z,23.68
2022-07-30T10:09:30.946Z,23.72
2022-07-30T10:12:02.561Z,23.82
2022-07-30T10:14:34.192Z,23.79
2022-07-30T10:17:09.508Z,23.57
2022-07-30T10:19:39.955Z,23.63
2022-07-30T10:22:27.500Z,23.71
2022-07-30T10:25:18.781Z,24.00
2022-07-30T10:28:15.434Z,24.20
2022-07-30T10:30:43.634Z,24.41
2022-07-30T10:33:34.207Z,24.70
2022-07-30T10:35:59.109Z,24.90
2022-07-30T10:38:30.301Z,24.93
2022-07-30T10:41:08.116Z,24.98
2022-07-30T10:44:12.016Z,25.17
2022-07-30T10:47:07.941Z,25.30
2022-07-30T10:49:41.338Z,25.38
2022-07-30T10:52:10.383Z,25.27
2022-07-30T10:54:42.463Z,24.94
2022-07-30T10:57:14.963Z,24.48
2022-07-30T10:59:52.457Z,24.27
2022-07-30T11:02:20.350Z,24.52
2022-07-30T11:04:47.814Z,24.74
2022-07-30T11:07:29.521Z,24.73
2022-07-30T11:10:04.301Z,24.73
2022-07-30T11:12:45.659Z,24.83
2022-07-30T11:15:18.729Z,24.79
2022-07-30T11:18:01.198Z,24.53
2022-07-30T11:20:30.671Z,24.55
2022-07-30T11:23:29.088Z,24.44
2022-07-30T11:26:02.076Z,24.60
2022-07-30T11:28:43.470Z,24.92
2022-07-30T11:31:36.904Z,25.38
2022-07-30T11:34:20.028Z,25.45
2022-07-30T11:37:18.056Z,25.13
2022-07-30T11:39:54.581Z,24.78
2022-07-30T11:42:33.042Z,24.73
2022-07-30T11:45:23.041Z,24.62
2022-07-30T11:47:57.990Z,24.86
2022-07-30T11:50:33.283Z,25.20
2022-07-30T11:53:06.188Z,25.04
2022-07-30T11:55:35.709Z,24.78
2022-07-30T11:58:05.976Z,24.54
2022-07-30T12:00:40.659Z,24.39
2022-07-30T12:03:15.412Z,24.60
2022-07-30T12:05:43.562Z,24.70
2022-07-30T12:08:35.230Z,25.11
2022-07-30T12:11:01.575Z,25.34
2022-07-30T12:13:43.927Z,25.43
2022-07-30T12:16:14.273Z,25.47
2022-07-30T12:18:40.901Z,25.26
2022-07-30T12:21:12.078Z,24.99
2022-07-30T12:23:39.119Z,24.81
2022-07-30T12:26:05.973Z,24.87
2022-07-30T12:28:34.451Z,24.63
2022-07-30T12:31:04.606Z,24.39
2022-07-30T12:33:31.422Z,24.28
2022-07-30T12:36:00.647Z,24.46
2022-07-30T12:38:28.588Z,24.89
2022-07-30T12:41:04.944Z,25.09
2022-07-30T12:43:49.841Z,25.02
2022-07-30T12:46:27.310Z,24.85
2022-07-30T12:49:21.109Z,25.04
2022-07-30T12:51:59.696Z,24.91
2022-07-30T12:54:27.483Z,24.78
2022-07-30T12:57:03.287Z,24.88
2022-07-30T12:59:31.641Z,24.84
2022-07-30T13:02:00.631Z,24.83
2022-07-30T13:04:28.099Z,24.71
2022-07-30T13:07:08.144Z,24.63
2022-07-30T13:09:35.187Z,24.79
2022-07-30T13:12:01.928Z,25.24
2022-07-30T13:14:28.665Z,25.64
2022-07-30T13:16:58.273Z,25.75
2022-07-30T13:19:26.430Z,25.93
2022-07-30T13:21:53.090Z,25.77
2022-07-30T13:24:20.068Z,25.59
2022-07-30T13:26:47.066Z,25.43
2022-07-30T13:29:13.820Z,25.27
2022-07-30T13:31:43.015Z,25.10
2022-07-30T13:34:11.390Z,25.15
2022-07-30T13:36:38.135Z,25.76
2022-07-30T13:39:04.765Z,26.52
2022-07-30T13:41:31.466Z,26.90
2022-07-30T13:43:58.052Z,26.66
2022-07-30T13:46:24.699Z,26.46
2022-07-30T13:48:51.380Z,26.49
2022-07-30T13:51:18.746Z,26.67
2022-07-30T13:53:45.572Z,27.16
2022-07-30T13:56:12.661Z,27.49
2022-07-30T13:58:40.217Z,27.82
2022-07-30T14:01:09.451Z,27.85
2022-07-30T14:03:47.098Z,28.21
2022-07-30T14:06:16.293Z,28.66
2022-07-30T14:08:42.886Z,29.08
2022-07-30T14:11:09.503Z,28.97
2022-07-30T14:13:36.105Z,29.16
2022-07-30T14:16:02.722Z,29.44
2022-07-30T14:18:29.892Z,29.24
2022-07-30T14:20:56.502Z,29.19
2022-07-30T14:23:23.432Z,29.35
2022-07-30T14:25:50.209Z,29.17
2022-07-30T14:28:16.811Z,28.98
2022-07-30T14:30:43.757Z,29.15
2022-07-30T14:33:10.706Z,29.16
2022-07-30T14:35:37.390Z,28.90
2022-07-30T14:38:04.420Z,29.11
2022-07-30T14:40:32.459Z,29.31
2022-07-30T14:42:59.492Z,29.33
2022-07-30T14:45:26.279Z,29.41
2022-07-30T14:47:56.376Z,29.43
2022-07-30T14:50:23.123Z,29.48
2022-07-30T14:52:50.493Z,29.60
2022-07-30T14:55:17.445Z,29.45
2022-07-30T14:57:44.348Z,28.56
2022-07-30T15:00:11.973Z,27.80
2022-07-30T15:02:38.907Z,27.69
2022-07-30T15:05:06.160Z,27.79
2022-07-30T15:07:34.605Z,28.12
2022-07-30T15:10:02.579Z,28.20
2022-07-30T15:12:29.273Z,27.93
2022-07-30T15:14:55.937Z,27.94
2022-07-30T15:17:22.586Z,28.19
2022-07-30T15:19:51.128Z,28.13
2022-07-30T15:22:21.108Z,27.94
2022-07-30T15:24:48.742Z,27.73
2022-07-30T15:27:15.614Z,27.60
2022-07-30T15:29:42.266Z,27.63
2022-07-30T15:32:08.991Z,27.70
2022-07-30T15:34:35.742Z,27.98
2022-07-30T15:37:03.311Z,28.26
2022-07-30T15:39:32.378Z,28.33
2022-07-30T15:42:00.622Z,28.35
2022-07-30T15:44:27.748Z,28.30
2022-07-30T15:46:54.975Z,28.14
2022-07-30T15:49:21.674Z,28.15
2022-07-30T15:51:51.854Z,28.37
2022-07-30T15:54:23.322Z,28.69
2022-07-30T15:56:51.133Z,28.92
2022-07-30T15:59:18.093Z,29.20
2022-07-30T16:01:45.156Z,29.38
2022-07-30T16:04:19.061Z,29.48
2022-07-30T16:06:48.213Z,29.53
2022-07-30T16:09:16.249Z,29.32
2022-07-30T16:11:43.137Z,28.99
2022-07-30T16:14:10.407Z,28.91
2022-07-30T16:16:37.493Z,28.89
2022-07-30T16:19:04.438Z,28.96
2022-07-30T16:21:31.107Z,29.08
2022-07-30T16:23:57.713Z,28.90
2022-07-30T16:26:24.490Z,28.47
2022-07-30T16:28:51.197Z,27.98
2022-07-30T16:31:17.922Z,27.44
2022-07-30T16:33:44.589Z,27.09
2022-07-30T16:36:11.552Z,26.69
2022-07-30T16:38:38.231Z,26.37
2022-07-30T16:41:04.883Z,26.16
2022-07-30T16:43:32.080Z,26.01
2022-07-30T16:46:00.030Z,25.99
2022-07-30T16:48:26.694Z,25.99
2022-07-30T16:50:53.727Z,26.05
2022-07-30T16:53:20.840Z,26.44
2022-07-30T16:55:47.703Z,26.92
2022-07-30T16:58:14.476Z,27.25
2022-07-30T17:00:41.251Z,27.48
2022-07-30T17:03:08.241Z,27.62
2022-07-30T17:05:35.030Z,27.65
2022-07-30T17:08:04.684Z,27.66
2022-07-30T17:10:31.436Z,27.71
2022-07-30T17:12:58.205Z,27.70
2022-07-30T17:15:32.770Z,27.73
2022-07-30T17:18:03.518Z,27.83
2022-07-30T17:20:31.445Z,28.01
2022-07-30T17:22:58.044Z,28.14
2022-07-30T17:25:28.317Z,28.26
2022-07-30T17:27:57.041Z,28.23
2022-07-30T17:30:24.297Z,28.25
2022-07-30T17:32:51.040Z,28.23
2022-07-30T17:35:17.821Z,28.04
2022-07-30T17:37:44.475Z,27.74
2022-07-30T17:40:29.439Z,27.54
2022-07-30T17:43:04.915Z,27.19
2022-07-30T17:45:35.975Z,26.87
2022-07-30T17:48:04.328Z,26.60
2022-07-30T17:50:32.445Z,26.41
2022-07-30T17:52:59.728Z,26.24
2022-07-30T17:55:28.153Z,26.03
2022-07-30T17:57:55.142Z,25.96
2022-07-30T18:00:22.978Z,25.81
2022-07-30T18:02:49.556Z,25.62
2022-07-30T18:05:16.305Z,25.86
2022-07-30T18:07:44.106Z,26.49
2022-07-30T18:10:11.801Z,26.33
2022-07-30T18:12:39.051Z,25.94
2022-07-30T18:15:15.696Z,25.62
2022-07-30T18:17:42.315Z,25.37
2022-07-30T18:20:09.568Z,25.09
2022-07-30T18:22:36.191Z,24.93
2022-07-30T18:25:03.196Z,24.75
2022-07-30T18:27:34.396Z,24.59
2022-07-30T18:30:01.055Z,24.42
2022-07-30T18:32:27.751Z,24.32
2022-07-30T18:34:54.698Z,24.22
2022-07-30T18:37:21.364Z,24.09
2022-07-30T18:39:48.059Z,23.99
2022-07-30T18:42:14.771Z,23.89
2022-07-30T18:44:41.416Z,23.78
2022-07-30T18:47:08.015Z,23.67
2022-07-30T18:49:37.172Z,23.65
2022-07-30T18:52:06.077Z,23.55
2022-07-30T18:54:33.085Z,23.47
2022-07-30T18:56:59.680Z,23.40
2022-07-30T18:59:26.302Z,23.30
2022-07-30T19:01:52.905Z,23.29
2022-07-30T19:04:19.778Z,23.18
2022-07-30T19:06:46.367Z,23.13
2022-07-30T19:09:16.847Z,23.06
2022-07-30T19:11:45.790Z,22.97
2022-07-30T19:14:13.277Z,22.90
2022-07-30T19:16:41.811Z,22.84
2022-07-30T19:19:09.288Z,22.81
2022-07-30T19:21:35.917Z,22.76
2022-07-30T19:24:02.620Z,22.72
2022-07-30T19:26:30.404Z,22.66
2022-07-30T19:28:56.983Z,22.57
2022-07-30T19:31:23.584Z,22.53
2022-07-30T19:33:50.831Z,22.48
2022-07-30T19:36:20.722Z,22.40
2022-07-30T19:38:48.926Z,22.31
2022-07-30T19:41:16.528Z,22.19
2022-07-30T19:43:43.337Z,22.11
2022-07-30T19:46:24.481Z,22.03
2022-07-30T19:48:51.175Z,21.96
2022-07-30T19:51:21.027Z,21.88
2022-07-30T19:53:52.220Z,21.76
2022-07-30T19:59:14.560Z,21.66
2022-07-30T20:01:43.034Z,21.56
2022-07-30T20:04:11.175Z,21.46
2022-07-30T20:06:38.534Z,21.40
2022-07-30T20:09:05.164Z,21.30
2022-07-30T20:11:40.853Z,21.21
2022-07-30T20:14:10.379Z,21.10
2022-07-30T20:16:37.398Z,21.01
2022-07-30T20:19:05.035Z,20.97
2022-07-30T20:21:57.141Z,20.94
2022-07-30T20:24:20.248Z,20.84
2022-07-30T20:26:47.613Z,20.78
2022-07-30T20:32:01.009Z,20.58
2022-07-30T20:34:30.714Z,20.54
2022-07-30T20:36:59.092Z,20.47
2022-07-30T20:39:41.696Z,20.39
2022-07-30T20:42:08.300Z,20.31
2022-07-30T20:44:40.807Z,20.25
2022-07-30T20:47:11.169Z,20.21
2022-07-30T20:49:39.107Z,20.15
2022-07-30T20:52:07.268Z,20.08
2022-07-30T20:54:34.148Z,20.10
2022-07-30T20:57:00.818Z,20.00
2022-07-30T20:59:27.646Z,20.05
2022-07-30T21:01:55.824Z,20.03
2022-07-30T21:04:25.254Z,20.00
2022-07-30T21:06:52.527Z,19.95
2022-07-30T21:09:20.212Z,19.86
2022-07-30T21:11:50.645Z,19.83
2022-07-30T21:14:18.642Z,19.76
2022-07-30T21:16:46.617Z,19.75
2022-07-30T21:19:19.113Z,19.70
2022-07-30T21:21:50.232Z,19.64
2022-07-30T21:24:19.752Z,19.61
2022-07-30T21:26:51.226Z,19.50
2022-07-30T21:29:18.978Z,19.49
2022-07-30T21:34:40.389Z,19.28
2022-07-30T21:37:09.132Z,19.28
2022-07-30T21:39:39.777Z,19.24
2022-07-30T21:42:06.939Z,19.23
2022-07-30T21:44:33.538Z,19.19
2022-07-30T21:47:00.206Z,19.18
2022-07-30T21:49:27.948Z,19.17
2022-07-30T21:51:58.607Z,19.19
2022-07-30T21:54:29.174Z,19.20
2022-07-30T21:56:58.317Z,19.19
2022-07-30T21:59:25.237Z,19.14
2022-07-30T22:01:55.209Z,19.16
2022-07-30T22:04:22.242Z,19.10
2022-07-30T22:06:48.853Z,19.02
2022-07-30T22:09:18.823Z,18.97
2022-07-30T22:11:53.951Z,18.90
2022-07-30T22:14:20.586Z,18.89
2022-07-30T22:16:47.556Z,18.87
2022-07-30T22:19:15.261Z,18.83
2022-07-30T22:21:46.531Z,18.83
2022-07-30T22:24:28.992Z,18.77
2022-07-30T22:27:14.640Z,18.76
2022-07-30T22:29:43.289Z,18.71
2022-07-30T22:32:11.506Z,18.76
2022-07-30T22:34:38.166Z,18.76
2022-07-30T22:37:04.740Z,18.66
2022-07-30T22:39:51.021Z,18.57
2022-07-30T22:42:20.112Z,18.49
2022-07-30T22:44:47.453Z,18.51
2022-07-30T22:47:18.695Z,18.49
2022-07-30T22:49:49.672Z,18.55
2022-07-30T22:52:24.213Z,18.59
2022-07-30T22:54:53.253Z,18.64
2022-07-30T22:57:23.468Z,18.66
2022-07-30T22:59:57.996Z,18.55
2022-07-30T23:02:25.711Z,18.44
2022-07-30T23:04:54.739Z,18.31
2022-07-30T23:07:23.374Z,18.19
2022-07-30T23:09:51.826Z,18.18
2022-07-30T23:12:17.077Z,21.73
2022-07-30T23:12:18.142Z,20.69
2022-07-30T23:12:20.271Z,18.15
2022-07-30T23:12:27.407Z,19.38
2022-07-30T23:14:47.747Z,18.09
2022-07-30T23:17:14.692Z,18.18
2022-07-30T23:19:41.283Z,18.21
2022-07-30T23:22:07.926Z,18.20
2022-07-30T23:24:34.582Z,18.19
2022-07-30T23:27:02.288Z,18.16
2022-07-30T23:29:29.186Z,18.12
2022-07-30T23:31:55.961Z,18.11
2022-07-30T23:34:22.924Z,18.05
2022-07-30T23:36:49.740Z,18.00
2022-07-30T23:39:16.459Z,17.97
2022-07-30T23:41:43.719Z,17.94
2022-07-30T23:44:10.333Z,17.92
2022-07-30T23:46:37.187Z,17.85
2022-07-30T23:49:05.062Z,17.91
2022-07-30T23:51:33.490Z,17.86
2022-07-30T23:54:01.107Z,17.88
2022-07-30T23:56:27.745Z,17.84
2022-07-30T23:58:54.699Z,17.77
